THY5PB LTFM-LTBS
Flight info
| Callsign | THY5PB |
|---|---|
| Flight time | 0h 51m |
| Altitude | 34000 |
| Route | RATVU1E/36 RATVU UT35 NUMTI DCT KULAR/N0444F350 UT44 ATSAL |
| Aircraft | A321/M-SDE3FGHIRWY/LB1 |
Departure
| Time | 2026-05-05 14:24 |
|---|---|
| Airport | İstanbul Airport (LTFM) |
Arrival
| Time | 2026-05-05 15:15 |
|---|---|
| Airport | Dalaman International Airport (LTBS) |
| Time | Latitude | Longitude | Altitude | Speed | Heading |
|---|---|---|---|---|---|
| 2026-05-05 13:31 | 41.25739 | 28.74837 | 331 ft | 0 kts | 359° |
| 2026-05-05 14:11 | 41.25738 | 28.74837 | 334 ft | 1 kts | 359° |
| 2026-05-05 14:12 | 41.25723 | 28.74838 | 330 ft | 3 kts | 352° |
| 2026-05-05 14:12 | 41.25703 | 28.74843 | 329 ft | 3 kts | 341° |
| 2026-05-05 14:12 | 41.25684 | 28.74853 | 331 ft | 3 kts | 327° |
| 2026-05-05 14:12 | 41.25668 | 28.74869 | 333 ft | 3 kts | 312° |
| 2026-05-05 14:13 | 41.25656 | 28.74890 | 330 ft | 3 kts | 297° |
| 2026-05-05 14:13 | 41.25648 | 28.74915 | 330 ft | 3 kts | 285° |
| 2026-05-05 14:13 | 41.25644 | 28.74940 | 330 ft | 3 kts | 276° |
| 2026-05-05 14:13 | 41.25643 | 28.74967 | 331 ft | 3 kts | 270° |
| 2026-05-05 14:14 | 41.25643 | 28.74994 | 331 ft | 3 kts | 270° |
| 2026-05-05 14:14 | 41.25642 | 28.75021 | 331 ft | 3 kts | 283° |
| 2026-05-05 14:14 | 41.25637 | 28.75039 | 331 ft | 3 kts | 341° |
| 2026-05-05 14:14 | 41.25622 | 28.75041 | 330 ft | 3 kts | 358° |
| 2026-05-05 14:15 | 41.25602 | 28.75042 | 330 ft | 3 kts | 355° |
| 2026-05-05 14:15 | 41.25582 | 28.75045 | 332 ft | 3 kts | 357° |
| 2026-05-05 14:15 | 41.25573 | 28.75045 | 329 ft | 0 kts | 359° |
| 2026-05-05 14:18 | 41.25577 | 28.75045 | 333 ft | 2 kts | 359° |
| 2026-05-05 14:18 | 41.25602 | 28.75045 | 330 ft | 5 kts | 359° |
| 2026-05-05 14:18 | 41.25638 | 28.75065 | 333 ft | 6 kts | 45° |
| 2026-05-05 14:19 | 41.25647 | 28.75123 | 331 ft | 7 kts | 88° |
| 2026-05-05 14:19 | 41.25649 | 28.75194 | 331 ft | 8 kts | 88° |
| 2026-05-05 14:19 | 41.25650 | 28.75277 | 334 ft | 9 kts | 89° |
| 2026-05-05 14:19 | 41.25653 | 28.75370 | 334 ft | 10 kts | 79° |
| 2026-05-05 14:20 | 41.25711 | 28.75404 | 331 ft | 11 kts | 359° |
| 2026-05-05 14:20 | 41.25788 | 28.75402 | 330 ft | 12 kts | 359° |
| 2026-05-05 14:20 | 41.25873 | 28.75399 | 332 ft | 13 kts | 359° |
| 2026-05-05 14:20 | 41.25964 | 28.75398 | 333 ft | 13 kts | 359° |
| 2026-05-05 14:21 | 41.26060 | 28.75396 | 333 ft | 14 kts | 359° |
| 2026-05-05 14:21 | 41.26161 | 28.75395 | 332 ft | 15 kts | 359° |
| 2026-05-05 14:21 | 41.26240 | 28.75410 | 334 ft | 10 kts | 45° |
| 2026-05-05 14:21 | 41.26248 | 28.75490 | 334 ft | 5 kts | 89° |
| 2026-05-05 14:22 | 41.26248 | 28.75505 | 334 ft | 1 kts | 89° |
| 2026-05-05 14:22 | 41.26249 | 28.75520 | 334 ft | 2 kts | 89° |
| 2026-05-05 14:22 | 41.26249 | 28.75546 | 334 ft | 3 kts | 89° |
| 2026-05-05 14:22 | 41.26250 | 28.75584 | 334 ft | 5 kts | 89° |
| 2026-05-05 14:23 | 41.26251 | 28.75634 | 334 ft | 6 kts | 88° |
| 2026-05-05 14:23 | 41.26278 | 28.75664 | 333 ft | 6 kts | 5° |
| 2026-05-05 14:23 | 41.26361 | 28.75665 | 334 ft | 32 kts | 359° |
| 2026-05-05 14:23 | 41.26835 | 28.75655 | 333 ft | 102 kts | 359° |
| 2026-05-05 14:24 | 41.27742 | 28.75638 | 336 ft | 156 kts | 359° |
| 2026-05-05 14:24 | 41.28875 | 28.75623 | 846 ft | 160 kts | 1° |
| 2026-05-05 14:24 | 41.29971 | 28.75792 | 1523 ft | 165 kts | 24° |
| 2026-05-05 14:24 | 41.30940 | 28.76750 | 1822 ft | 184 kts | 39° |
| 2026-05-05 14:25 | 41.31982 | 28.77874 | 2082 ft | 201 kts | 33° |
| 2026-05-05 14:25 | 41.33247 | 28.78871 | 2190 ft | 224 kts | 27° |
| 2026-05-05 14:25 | 41.34692 | 28.79908 | 2482 ft | 244 kts | 27° |
| 2026-05-05 14:25 | 41.36195 | 28.80996 | 3158 ft | 251 kts | 27° |
| 2026-05-05 14:26 | 41.37603 | 28.82407 | 3875 ft | 259 kts | 49° |
| 2026-05-05 14:26 | 41.38346 | 28.84611 | 4619 ft | 268 kts | 80° |
| 2026-05-05 14:26 | 41.38426 | 28.87127 | 5382 ft | 273 kts | 86° |
| 2026-05-05 14:26 | 41.38425 | 28.89637 | 6155 ft | 276 kts | 91° |
| 2026-05-05 14:27 | 41.37861 | 28.92107 | 6854 ft | 287 kts | 119° |
| 2026-05-05 14:27 | 41.36438 | 28.94006 | 7518 ft | 296 kts | 149° |
| 2026-05-05 14:27 | 41.34454 | 28.94775 | 8168 ft | 302 kts | 178° |
| 2026-05-05 14:27 | 41.32333 | 28.94819 | 8853 ft | 306 kts | 180° |
| 2026-05-05 14:28 | 41.30182 | 28.94835 | 9534 ft | 311 kts | 180° |
| 2026-05-05 14:28 | 41.28023 | 28.94850 | 10183 ft | 315 kts | 180° |
| 2026-05-05 14:28 | 41.25797 | 28.94872 | 10699 ft | 326 kts | 180° |
| 2026-05-05 14:28 | 41.23472 | 28.95158 | 10823 ft | 347 kts | 166° |
| 2026-05-05 14:29 | 41.21041 | 28.95918 | 11040 ft | 366 kts | 165° |
| 2026-05-05 14:29 | 41.18547 | 28.96747 | 11581 ft | 372 kts | 165° |
| 2026-05-05 14:29 | 41.16054 | 28.97587 | 12226 ft | 374 kts | 165° |
| 2026-05-05 14:29 | 41.13481 | 28.98451 | 12912 ft | 377 kts | 165° |
| 2026-05-05 14:30 | 41.10929 | 28.99298 | 13555 ft | 380 kts | 165° |
| 2026-05-05 14:30 | 41.08385 | 29.00136 | 14157 ft | 383 kts | 165° |
| 2026-05-05 14:30 | 41.05784 | 29.00987 | 14743 ft | 385 kts | 165° |
| 2026-05-05 14:30 | 41.03175 | 29.01836 | 15354 ft | 387 kts | 166° |
| 2026-05-05 14:31 | 41.00546 | 29.02688 | 15961 ft | 389 kts | 166° |
| 2026-05-05 14:31 | 40.97928 | 29.03536 | 16561 ft | 391 kts | 166° |
| 2026-05-05 14:31 | 40.95268 | 29.04399 | 17157 ft | 394 kts | 166° |
| 2026-05-05 14:31 | 40.92589 | 29.05269 | 17751 ft | 396 kts | 166° |
| 2026-05-05 14:32 | 40.89894 | 29.06143 | 18338 ft | 398 kts | 166° |
| 2026-05-05 14:32 | 40.87225 | 29.07007 | 18869 ft | 401 kts | 166° |
| 2026-05-05 14:32 | 40.84503 | 29.07887 | 19377 ft | 403 kts | 166° |
| 2026-05-05 14:32 | 40.81760 | 29.08774 | 19881 ft | 406 kts | 166° |
| 2026-05-05 14:33 | 40.79005 | 29.09664 | 20379 ft | 408 kts | 166° |
| 2026-05-05 14:33 | 40.76226 | 29.10563 | 20890 ft | 411 kts | 166° |
| 2026-05-05 14:33 | 40.73468 | 29.11455 | 21382 ft | 414 kts | 166° |
| 2026-05-05 14:33 | 40.70653 | 29.12368 | 21890 ft | 417 kts | 166° |
| 2026-05-05 14:34 | 40.67817 | 29.13287 | 22370 ft | 420 kts | 166° |
| 2026-05-05 14:34 | 40.64970 | 29.14206 | 22835 ft | 422 kts | 166° |
| 2026-05-05 14:34 | 40.62135 | 29.15116 | 23287 ft | 425 kts | 166° |
| 2026-05-05 14:34 | 40.59317 | 29.16019 | 23708 ft | 427 kts | 166° |
| 2026-05-05 14:35 | 40.58330 | 29.16334 | 23840 ft | 428 kts | 166° |
| 2026-05-05 14:35 | 40.56412 | 29.16947 | 24094 ft | 429 kts | 166° |
| 2026-05-05 14:35 | 40.53497 | 29.17879 | 24437 ft | 433 kts | 166° |
| 2026-05-05 14:35 | 40.50555 | 29.18819 | 24771 ft | 436 kts | 166° |
| 2026-05-05 14:36 | 40.47605 | 29.19763 | 25132 ft | 438 kts | 166° |
| 2026-05-05 14:36 | 40.44619 | 29.20719 | 25507 ft | 440 kts | 166° |
| 2026-05-05 14:36 | 40.41671 | 29.21666 | 25880 ft | 442 kts | 166° |
| 2026-05-05 14:36 | 40.38663 | 29.22630 | 26242 ft | 444 kts | 166° |
| 2026-05-05 14:37 | 40.35688 | 29.23580 | 26596 ft | 446 kts | 166° |
| 2026-05-05 14:37 | 40.32651 | 29.24547 | 26937 ft | 449 kts | 166° |
| 2026-05-05 14:37 | 40.29635 | 29.25504 | 27260 ft | 451 kts | 166° |
| 2026-05-05 14:37 | 40.26577 | 29.26474 | 27632 ft | 452 kts | 166° |
| 2026-05-05 14:38 | 40.23503 | 29.27449 | 27975 ft | 454 kts | 166° |
| 2026-05-05 14:38 | 40.20426 | 29.28425 | 28314 ft | 456 kts | 166° |
| 2026-05-05 14:38 | 40.17334 | 29.29408 | 28648 ft | 458 kts | 166° |
| 2026-05-05 14:38 | 40.14260 | 29.30385 | 28951 ft | 460 kts | 166° |
| 2026-05-05 14:39 | 40.11126 | 29.31379 | 29259 ft | 463 kts | 167° |
| 2026-05-05 14:39 | 40.07981 | 29.32373 | 29543 ft | 466 kts | 167° |
| 2026-05-05 14:39 | 40.04814 | 29.33370 | 29857 ft | 469 kts | 167° |
| 2026-05-05 14:39 | 40.01667 | 29.34362 | 30147 ft | 471 kts | 167° |
| 2026-05-05 14:40 | 39.98466 | 29.35373 | 30404 ft | 473 kts | 167° |
| 2026-05-05 14:40 | 39.95249 | 29.36389 | 30698 ft | 474 kts | 167° |
| 2026-05-05 14:40 | 39.92094 | 29.37394 | 31057 ft | 473 kts | 166° |
| 2026-05-05 14:40 | 39.88965 | 29.38769 | 31395 ft | 473 kts | 158° |
| 2026-05-05 14:41 | 39.85936 | 29.40445 | 31718 ft | 473 kts | 158° |
| 2026-05-05 14:41 | 39.82885 | 29.42126 | 32055 ft | 473 kts | 158° |
| 2026-05-05 14:41 | 39.79877 | 29.43775 | 32384 ft | 472 kts | 158° |
| 2026-05-05 14:41 | 39.76839 | 29.45439 | 32730 ft | 472 kts | 158° |
| 2026-05-05 14:42 | 39.73817 | 29.47092 | 33066 ft | 471 kts | 158° |
| 2026-05-05 14:42 | 39.70779 | 29.48553 | 33383 ft | 470 kts | 166° |
| 2026-05-05 14:42 | 39.67560 | 29.49329 | 33669 ft | 468 kts | 177° |
| 2026-05-05 14:42 | 39.64299 | 29.49319 | 33879 ft | 467 kts | 188° |
| 2026-05-05 14:43 | 39.61152 | 29.48559 | 34037 ft | 464 kts | 199° |
| 2026-05-05 14:43 | 39.58158 | 29.47089 | 34076 ft | 456 kts | 209° |
| 2026-05-05 14:43 | 39.52859 | 29.42773 | 34072 ft | 451 kts | 216° |
| 2026-05-05 14:44 | 39.47598 | 29.38286 | 34067 ft | 452 kts | 217° |
| 2026-05-05 14:44 | 39.42357 | 29.33838 | 34066 ft | 452 kts | 217° |
| 2026-05-05 14:45 | 39.37080 | 29.29362 | 34065 ft | 452 kts | 217° |
| 2026-05-05 14:45 | 39.31843 | 29.24913 | 34062 ft | 452 kts | 217° |
| 2026-05-05 14:46 | 39.26587 | 29.20454 | 34055 ft | 454 kts | 217° |
| 2026-05-05 14:46 | 39.21303 | 29.15992 | 34055 ft | 454 kts | 217° |
| 2026-05-05 14:47 | 39.16025 | 29.11540 | 34050 ft | 455 kts | 218° |
| 2026-05-05 14:47 | 39.10755 | 29.07105 | 34057 ft | 455 kts | 218° |
| 2026-05-05 14:48 | 39.05444 | 29.02635 | 34058 ft | 455 kts | 218° |
| 2026-05-05 14:48 | 39.00164 | 28.98196 | 34059 ft | 455 kts | 218° |
| 2026-05-05 14:49 | 38.94862 | 28.93755 | 34053 ft | 455 kts | 217° |
| 2026-05-05 14:49 | 38.89538 | 28.89303 | 34061 ft | 455 kts | 217° |
| 2026-05-05 14:50 | 38.84258 | 28.84899 | 34059 ft | 455 kts | 218° |
| 2026-05-05 14:50 | 38.78938 | 28.80466 | 34061 ft | 455 kts | 218° |
| 2026-05-05 14:51 | 38.73644 | 28.76055 | 34057 ft | 455 kts | 218° |
| 2026-05-05 14:51 | 38.68315 | 28.71630 | 34051 ft | 455 kts | 218° |
| 2026-05-05 14:52 | 38.63010 | 28.67248 | 34058 ft | 456 kts | 215° |
| 2026-05-05 14:52 | 38.57051 | 28.64245 | 34045 ft | 467 kts | 195° |
| 2026-05-05 14:53 | 38.53804 | 28.63749 | 34047 ft | 472 kts | 184° |
| 2026-05-05 14:53 | 38.50555 | 28.63898 | 34031 ft | 475 kts | 179° |
| 2026-05-05 14:53 | 38.47251 | 28.64178 | 33590 ft | 477 kts | 179° |
| 2026-05-05 14:53 | 38.43932 | 28.64459 | 32954 ft | 476 kts | 179° |
| 2026-05-05 14:54 | 38.40632 | 28.64737 | 32426 ft | 473 kts | 179° |
| 2026-05-05 14:54 | 38.37347 | 28.65011 | 31901 ft | 471 kts | 179° |
| 2026-05-05 14:54 | 38.34080 | 28.65282 | 31371 ft | 468 kts | 179° |
| 2026-05-05 14:54 | 38.30879 | 28.65543 | 30853 ft | 466 kts | 179° |
| 2026-05-05 14:55 | 38.27649 | 28.65804 | 30325 ft | 463 kts | 180° |
| 2026-05-05 14:55 | 38.24450 | 28.66064 | 29855 ft | 458 kts | 180° |
| 2026-05-05 14:55 | 38.21276 | 28.66327 | 29274 ft | 455 kts | 180° |
| 2026-05-05 14:55 | 38.18125 | 28.66589 | 28799 ft | 450 kts | 180° |
| 2026-05-05 14:56 | 38.15027 | 28.66845 | 28369 ft | 444 kts | 180° |
| 2026-05-05 14:56 | 38.11976 | 28.67095 | 27888 ft | 440 kts | 180° |
| 2026-05-05 14:56 | 38.08932 | 28.67338 | 27369 ft | 436 kts | 180° |
| 2026-05-05 14:56 | 38.05916 | 28.67580 | 26919 ft | 431 kts | 180° |
| 2026-05-05 14:57 | 38.02933 | 28.67826 | 26481 ft | 426 kts | 180° |
| 2026-05-05 14:57 | 38.00022 | 28.68067 | 26048 ft | 421 kts | 180° |
| 2026-05-05 14:57 | 37.97100 | 28.68307 | 25614 ft | 418 kts | 180° |
| 2026-05-05 14:57 | 37.94206 | 28.68546 | 25170 ft | 414 kts | 180° |
| 2026-05-05 14:58 | 37.91333 | 28.68783 | 24718 ft | 412 kts | 180° |
| 2026-05-05 14:58 | 37.88471 | 28.69016 | 24278 ft | 411 kts | 180° |
| 2026-05-05 14:58 | 37.85612 | 28.69245 | 23815 ft | 410 kts | 180° |
| 2026-05-05 14:58 | 37.82870 | 28.69464 | 23368 ft | 408 kts | 180° |
| 2026-05-05 14:59 | 37.80036 | 28.69694 | 22876 ft | 407 kts | 180° |
| 2026-05-05 14:59 | 37.77219 | 28.69924 | 22464 ft | 402 kts | 180° |
| 2026-05-05 14:59 | 37.74428 | 28.70150 | 21996 ft | 400 kts | 180° |
| 2026-05-05 14:59 | 37.71695 | 28.70371 | 21484 ft | 399 kts | 180° |
| 2026-05-05 15:00 | 37.68926 | 28.70583 | 21027 ft | 396 kts | 180° |
| 2026-05-05 15:00 | 37.67104 | 28.70713 | 20717 ft | 395 kts | 180° |
| 2026-05-05 15:00 | 37.63447 | 28.70959 | 20108 ft | 392 kts | 180° |
| 2026-05-05 15:00 | 37.60725 | 28.71142 | 19657 ft | 390 kts | 180° |
| 2026-05-05 15:01 | 37.58056 | 28.71326 | 19200 ft | 388 kts | 180° |
| 2026-05-05 15:01 | 37.55356 | 28.71516 | 18732 ft | 386 kts | 179° |
| 2026-05-05 15:01 | 37.52668 | 28.71707 | 18278 ft | 384 kts | 178° |
| 2026-05-05 15:01 | 37.50072 | 28.72256 | 17801 ft | 384 kts | 165° |
| 2026-05-05 15:02 | 37.47612 | 28.73551 | 17324 ft | 383 kts | 152° |
| 2026-05-05 15:02 | 37.45295 | 28.75180 | 16871 ft | 379 kts | 152° |
| 2026-05-05 15:02 | 37.42988 | 28.76792 | 16405 ft | 376 kts | 152° |
| 2026-05-05 15:02 | 37.40701 | 28.78384 | 15964 ft | 373 kts | 152° |
| 2026-05-05 15:03 | 37.38434 | 28.79958 | 15509 ft | 370 kts | 152° |
| 2026-05-05 15:03 | 37.36185 | 28.81515 | 15068 ft | 368 kts | 152° |
| 2026-05-05 15:03 | 37.33967 | 28.83051 | 14618 ft | 366 kts | 152° |
| 2026-05-05 15:03 | 37.31754 | 28.84583 | 14187 ft | 360 kts | 152° |
| 2026-05-05 15:04 | 37.29609 | 28.86068 | 13758 ft | 352 kts | 152° |
| 2026-05-05 15:04 | 37.27497 | 28.87530 | 13299 ft | 342 kts | 152° |
| 2026-05-05 15:04 | 37.25437 | 28.88956 | 12889 ft | 332 kts | 152° |
| 2026-05-05 15:04 | 37.23446 | 28.90333 | 12495 ft | 323 kts | 152° |
| 2026-05-05 15:05 | 37.19616 | 28.92979 | 11768 ft | 313 kts | 151° |
| 2026-05-05 15:05 | 37.17696 | 28.94301 | 11392 ft | 313 kts | 151° |
| 2026-05-05 15:05 | 37.15858 | 28.95735 | 11135 ft | 307 kts | 141° |
| 2026-05-05 15:06 | 37.14276 | 28.97460 | 10879 ft | 296 kts | 137° |
| 2026-05-05 15:06 | 37.12770 | 28.99159 | 10583 ft | 287 kts | 137° |
| 2026-05-05 15:06 | 37.11327 | 29.00781 | 10293 ft | 277 kts | 137° |
| 2026-05-05 15:06 | 37.09911 | 29.02370 | 10024 ft | 268 kts | 137° |
| 2026-05-05 15:07 | 37.08478 | 29.03853 | 9712 ft | 265 kts | 147° |
| 2026-05-05 15:07 | 37.06804 | 29.04754 | 9212 ft | 260 kts | 168° |
| 2026-05-05 15:07 | 37.05061 | 29.04908 | 8697 ft | 251 kts | 187° |
| 2026-05-05 15:07 | 37.03395 | 29.04382 | 8181 ft | 245 kts | 205° |
| 2026-05-05 15:08 | 37.01916 | 29.03355 | 7680 ft | 242 kts | 213° |
| 2026-05-05 15:08 | 37.00458 | 29.02276 | 7188 ft | 244 kts | 212° |
| 2026-05-05 15:08 | 36.99017 | 29.01215 | 6706 ft | 243 kts | 213° |
| 2026-05-05 15:08 | 36.97557 | 29.00147 | 6189 ft | 240 kts | 212° |
| 2026-05-05 15:09 | 36.96121 | 28.99098 | 5676 ft | 237 kts | 212° |
| 2026-05-05 15:09 | 36.94700 | 28.98059 | 5224 ft | 238 kts | 213° |
| 2026-05-05 15:09 | 36.93360 | 28.96876 | 4819 ft | 234 kts | 223° |
| 2026-05-05 15:09 | 36.92132 | 28.95555 | 4481 ft | 228 kts | 223° |
| 2026-05-05 15:10 | 36.90958 | 28.94310 | 4243 ft | 219 kts | 222° |
| 2026-05-05 15:10 | 36.89794 | 28.93081 | 3994 ft | 219 kts | 223° |
| 2026-05-05 15:10 | 36.88638 | 28.91860 | 3734 ft | 215 kts | 223° |
| 2026-05-05 15:10 | 36.87513 | 28.90672 | 3470 ft | 205 kts | 223° |
| 2026-05-05 15:11 | 36.86461 | 28.89564 | 3319 ft | 191 kts | 225° |
| 2026-05-05 15:11 | 36.85453 | 28.88591 | 3313 ft | 181 kts | 216° |
| 2026-05-05 15:11 | 36.84393 | 28.87817 | 3033 ft | 172 kts | 215° |
| 2026-05-05 15:11 | 36.83373 | 28.87073 | 2773 ft | 165 kts | 212° |
| 2026-05-05 15:12 | 36.82395 | 28.86360 | 2514 ft | 158 kts | 212° |
| 2026-05-05 15:12 | 36.81457 | 28.85675 | 2278 ft | 152 kts | 212° |
| 2026-05-05 15:12 | 36.80555 | 28.85016 | 2041 ft | 149 kts | 212° |
| 2026-05-05 15:12 | 36.79656 | 28.84365 | 1839 ft | 148 kts | 212° |
| 2026-05-05 15:13 | 36.78765 | 28.83732 | 1577 ft | 151 kts | 212° |
| 2026-05-05 15:13 | 36.77853 | 28.83047 | 1349 ft | 154 kts | 221° |
| 2026-05-05 15:13 | 36.77034 | 28.82226 | 1102 ft | 149 kts | 222° |
| 2026-05-05 15:13 | 36.76210 | 28.81462 | 882 ft | 147 kts | 217° |
| 2026-05-05 15:14 | 36.75345 | 28.80814 | 652 ft | 141 kts | 211° |
| 2026-05-05 15:14 | 36.74450 | 28.80346 | 439 ft | 143 kts | 200° |
| 2026-05-05 15:14 | 36.73511 | 28.80003 | 256 ft | 139 kts | 199° |
| 2026-05-05 15:14 | 36.72576 | 28.79685 | 52 ft | 139 kts | 198° |
| 2026-05-05 15:15 | 36.71731 | 28.79392 | 12 ft | 105 kts | 195° |
| 2026-05-05 15:15 | 36.71177 | 28.79205 | 13 ft | 60 kts | 195° |
| 2026-05-05 15:15 | 36.70845 | 28.79091 | 13 ft | 42 kts | 195° |
| 2026-05-05 15:15 | 36.70632 | 28.78946 | 13 ft | 27 kts | 224° |
| 2026-05-05 15:16 | 36.70578 | 28.78829 | 13 ft | 13 kts | 300° |
| 2026-05-05 15:16 | 36.70661 | 28.78816 | 13 ft | 14 kts | 13° |
| 2026-05-05 15:16 | 36.70757 | 28.78848 | 13 ft | 15 kts | 17° |
| 2026-05-05 15:16 | 36.70860 | 28.78882 | 13 ft | 16 kts | 15° |
| 2026-05-05 15:17 | 36.70971 | 28.78919 | 13 ft | 17 kts | 15° |
| 2026-05-05 15:17 | 36.71085 | 28.78959 | 13 ft | 18 kts | 15° |
| 2026-05-05 15:17 | 36.71209 | 28.79002 | 13 ft | 19 kts | 15° |
| 2026-05-05 15:17 | 36.71269 | 28.79023 | 13 ft | 0 kts | 16° |
| 2026-05-05 15:18 | 36.71273 | 28.79024 | 13 ft | 1 kts | 16° |
| 2026-05-05 15:18 | 36.71288 | 28.79030 | 13 ft | 3 kts | 16° |
| 2026-05-05 15:18 | 36.71314 | 28.79039 | 13 ft | 5 kts | 16° |
| 2026-05-05 15:18 | 36.71350 | 28.79051 | 13 ft | 6 kts | 15° |
| 2026-05-05 15:19 | 36.71396 | 28.79067 | 13 ft | 8 kts | 15° |
| 2026-05-05 15:19 | 36.71439 | 28.79081 | 13 ft | 0 kts | 14° |
| 2026-05-05 15:23 | 36.71444 | 28.79083 | 13 ft | 4 kts | 14° |
| 2026-05-05 15:23 | 36.71504 | 28.79102 | 12 ft | 13 kts | 15° |
| 2026-05-05 15:23 | 36.71593 | 28.79132 | 12 ft | 14 kts | 15° |
| 2026-05-05 15:24 | 36.71690 | 28.79166 | 12 ft | 15 kts | 15° |
| 2026-05-05 15:24 | 36.71794 | 28.79202 | 12 ft | 16 kts | 15° |
| 2026-05-05 15:24 | 36.71872 | 28.79176 | 12 ft | 12 kts | 300° |
| 2026-05-05 15:24 | 36.71891 | 28.79078 | 12 ft | 10 kts | 283° |
| 2026-05-05 15:25 | 36.71938 | 28.79028 | 12 ft | 10 kts | 5° |
| 2026-05-05 15:25 | 36.72011 | 28.79053 | 12 ft | 12 kts | 15° |
| 2026-05-05 15:25 | 36.72090 | 28.79081 | 12 ft | 9 kts | 15° |
| 2026-05-05 15:25 | 36.72137 | 28.79069 | 12 ft | 7 kts | 300° |
| 2026-05-05 15:26 | 36.72147 | 28.79027 | 12 ft | 2 kts | 285° |
| 2026-05-05 15:26 | 36.72149 | 28.79019 | 12 ft | 1 kts | 285° |